Terminal Aerodrome Forecast
Issued by NWS Sterling, VA

Current Version | Previous Version | Graphics & Text | Print | Product List | Glossary On
Versions: 1 2 3 4 5 6 7 8 9 10 11 12 13 14 15 16 17 18 19
032
FTUS41 KLWX 260536
TAFMRB
TAF
KMRB 260536Z 2606/2706 21005KT P6SM SCT110
     FM261300 24016G25KT P6SM SCT130
     FM261800 26017G27KT 6SM -SHRA BKN090
     FM262300 31013KT 6SM -SHRA BKN090
     FM270200 30007KT P6SM BKN050
     FM270500 36007KT P6SM BKN030=

USA.gov is the U.S. government's official web portal to all federal, state and local government web resources and services.